Redding, CA

11:34 AM PDT on September 16, 2014 (GMT -0700)
Dartmouth Drive | Change Station
CLOSE
Current Station
Personal Weather Station
Location: Redding, CA
Elevation: 768 ft
Nearby Weather Stations

Elev 768 ft 40.56 °N, 122.43 °W | Updated 10 minutes ago

Clear
Clear
81.1 °F
Feels Like 80 °F
N
2.7
Wind Variable Wind from SE

Today
High -- | Low -- °F
--% Chance of Precip.
Yesterday
High -- | Low -- °F
Precip. -- in
6:51 AM 7:16 PM
Last Quarter, 43% visible
Pressure 29.89 in
Visibility 10.0 miles
Clouds Clear
Heat Index 80 °F
Dew Point 52 °F
Humidity 37%
Rainfall 0.00 in
Snow Depth 0 in , 0 in , 0 in
UV 5 out of 12
Pollen 6.80 out of 12
Air Quality Not available.
Flu Activity Not available.
METAR KRDD 161753Z 31004KT 10SM CLR 25/09 A2990 RMK AO2 SLP120 T02500089 10250 20150 58004

More Conditions Fewer Conditions

Pressure 29.89 in
Visibility 10.0 miles
Clouds Clear
Heat Index 80 °F
Dew Point 52 °F
Humidity 37%
Rainfall 0.00 in
Snow Depth 0 in , 0 in , 0 in
UV 5 out of 12
Pollen 6.80 out of 12
Air Quality Not available.
Flu Activity Not available.
METAR KRDD 161753Z 31004KT 10SM CLR 25/09 A2990 RMK AO2 SLP120 T02500089 10250 20150 58004

More Conditions Fewer Conditions

10-Day Weather Forecast

Almanac

Astronomy

Sep. 16, 2014 Rise Set
Actual Time 6:51 AM PDT 7:16 PM PDT
Civil Twilight 6:24 AM PDT 7:44 PM PDT
Nautical Twilight 5:51 AM PDT 8:16 PM PDT
Astronomical Twilight 5:18 AM PDT 8:49 PM PDT
Moon 12:04 AM PDT 2:45 PM PDT
Length of Visible Light 13h 20m
Length of Day
12h 25m
Tomorrow will be 2m 39s shorter.
Last Quarter, 43% of the Moon is Illuminated
Today
Last Quarter
Sep 24
New
Oct 1
First Quarter
Oct 8
Full
Oct 15
Last Quarter

Today's Extremes

State Highs State Lows

Community

WunderPhotos

Upload Photos

1,753,856 photos uploaded!

Nearby

Snow Depth

Station Depth Elevation
Blue Lakes 0 in 8000 ft
Spratt Creek 0 in 6200 ft
Tahoe City Cross 0 in 6750 ft
Forestdale Creek 0 in 8029 ft
Adin Mountain 0 in 6200 ft

Earthquake Activity

City Distance Mag. Time & Date
Covelo, California 67 miles 3.3 1:17 PM PDT
2014-09-14
Cobb, California 121 miles 2.7 11:07 AM PDT
2014-09-14
Minimum magnitude displayed is 2.5.

Coastal Water Temperatures

Place Temperature
No Stations Reporting

Nearby Weather Stations